sensor_id;sensor_type;location;lat;lon;timestamp;temperature;humidity
60723;DHT22;46574;52.818;6.516;2023-04-03T00:01:56;2.40;99.90
60723;DHT22;46574;52.818;6.516;2023-04-03T00:04:21;2.40;99.90
60723;DHT22;46574;52.818;6.516;2023-04-03T00:06:47;2.40;99.90
60723;DHT22;46574;52.818;6.516;2023-04-03T00:09:12;2.30;99.90
60723;DHT22;46574;52.818;6.516;2023-04-03T00:11:38;2.30;99.90
60723;DHT22;46574;52.818;6.516;2023-04-03T00:14:04;2.40;99.90
60723;DHT22;46574;52.818;6.516;2023-04-03T00:16:29;2.30;99.90
60723;DHT22;46574;52.818;6.516;2023-04-03T00:18:55;2.30;99.90
60723;DHT22;46574;52.818;6.516;2023-04-03T00:21:21;2.30;99.90
60723;DHT22;46574;52.818;6.516;2023-04-03T00:23:46;2.30;99.90
60723;DHT22;46574;52.818;6.516;2023-04-03T00:26:12;2.30;99.90
60723;DHT22;46574;52.818;6.516;2023-04-03T00:28:37;2.20;99.90
60723;DHT22;46574;52.818;6.516;2023-04-03T00:31:03;2.20;99.90
60723;DHT22;46574;52.818;6.516;2023-04-03T00:33:29;2.10;99.90
60723;DHT22;46574;52.818;6.516;2023-04-03T00:35:55;2.20;99.90
60723;DHT22;46574;52.818;6.516;2023-04-03T00:38:20;2.10;99.90
60723;DHT22;46574;52.818;6.516;2023-04-03T00:40:47;2.10;99.90
60723;DHT22;46574;52.818;6.516;2023-04-03T00:43:20;2.10;99.90
60723;DHT22;46574;52.818;6.516;2023-04-03T00:45:48;2.00;99.90
60723;DHT22;46574;52.818;6.516;2023-04-03T00:51:33;2.00;99.90
60723;DHT22;46574;52.818;6.516;2023-04-03T00:54:03;2.00;99.90
60723;DHT22;46574;52.818;6.516;2023-04-03T00:56:31;2.00;99.90
60723;DHT22;46574;52.818;6.516;2023-04-03T00:59:07;1.90;99.90
60723;DHT22;46574;52.818;6.516;2023-04-03T01:01:34;1.90;99.90
60723;DHT22;46574;52.818;6.516;2023-04-03T01:04:01;1.90;99.90
60723;DHT22;46574;52.818;6.516;2023-04-03T01:06:31;1.90;99.90
60723;DHT22;46574;52.818;6.516;2023-04-03T01:08:59;1.90;99.90
60723;DHT22;46574;52.818;6.516;2023-04-03T01:11:25;1.90;99.90
60723;DHT22;46574;52.818;6.516;2023-04-03T01:13:52;1.90;99.90
60723;DHT22;46574;52.818;6.516;2023-04-03T01:16:18;1.90;99.90
60723;DHT22;46574;52.818;6.516;2023-04-03T01:18:45;1.80;99.90
60723;DHT22;46574;52.818;6.516;2023-04-03T01:21:27;1.80;99.90
60723;DHT22;46574;52.818;6.516;2023-04-03T01:26:38;1.80;99.90
60723;DHT22;46574;52.818;6.516;2023-04-03T01:29:04;1.70;99.90
60723;DHT22;46574;52.818;6.516;2023-04-03T01:34:11;1.70;99.90
60723;DHT22;46574;52.818;6.516;2023-04-03T01:36:37;1.70;99.90
60723;DHT22;46574;52.818;6.516;2023-04-03T01:39:03;1.70;99.90
60723;DHT22;46574;52.818;6.516;2023-04-03T01:41:28;1.60;99.90
60723;DHT22;46574;52.818;6.516;2023-04-03T01:43:54;1.60;99.90
60723;DHT22;46574;52.818;6.516;2023-04-03T01:46:20;1.60;99.90
60723;DHT22;46574;52.818;6.516;2023-04-03T01:48:46;1.50;99.90
60723;DHT22;46574;52.818;6.516;2023-04-03T01:51:12;1.50;99.90
60723;DHT22;46574;52.818;6.516;2023-04-03T01:53:38;1.50;99.90
60723;DHT22;46574;52.818;6.516;2023-04-03T01:56:04;1.50;99.90
60723;DHT22;46574;52.818;6.516;2023-04-03T01:58:29;1.40;99.90
60723;DHT22;46574;52.818;6.516;2023-04-03T02:00:55;1.40;99.90
60723;DHT22;46574;52.818;6.516;2023-04-03T02:03:21;1.40;99.90
60723;DHT22;46574;52.818;6.516;2023-04-03T02:05:47;1.40;99.90
60723;DHT22;46574;52.818;6.516;2023-04-03T02:08:13;1.30;99.90
60723;DHT22;46574;52.818;6.516;2023-04-03T02:10:39;1.30;99.90
60723;DHT22;46574;52.818;6.516;2023-04-03T02:13:05;1.30;99.90
60723;DHT22;46574;52.818;6.516;2023-04-03T02:15:31;1.30;99.90
60723;DHT22;46574;52.818;6.516;2023-04-03T02:17:56;1.20;99.90
60723;DHT22;46574;52.818;6.516;2023-04-03T02:20:22;1.20;99.90
60723;DHT22;46574;52.818;6.516;2023-04-03T02:22:48;1.20;99.90
60723;DHT22;46574;52.818;6.516;2023-04-03T02:25:14;1.20;99.90
60723;DHT22;46574;52.818;6.516;2023-04-03T02:27:40;1.20;99.90
60723;DHT22;46574;52.818;6.516;2023-04-03T02:30:06;1.20;99.90
60723;DHT22;46574;52.818;6.516;2023-04-03T02:32:32;1.10;99.90
60723;DHT22;46574;52.818;6.516;2023-04-03T02:34:58;1.10;99.90
60723;DHT22;46574;52.818;6.516;2023-04-03T02:37:24;1.10;99.90
60723;DHT22;46574;52.818;6.516;2023-04-03T02:39:50;1.10;99.90
60723;DHT22;46574;52.818;6.516;2023-04-03T02:42:15;1.00;99.90
60723;DHT22;46574;52.818;6.516;2023-04-03T02:44:41;1.00;99.90
60723;DHT22;46574;52.818;6.516;2023-04-03T02:47:07;1.00;99.90
60723;DHT22;46574;52.818;6.516;2023-04-03T02:49:32;1.00;99.90
60723;DHT22;46574;52.818;6.516;2023-04-03T02:51:58;1.00;99.90
60723;DHT22;46574;52.818;6.516;2023-04-03T02:54:23;1.00;99.90
60723;DHT22;46574;52.818;6.516;2023-04-03T02:56:53;0.90;99.90
60723;DHT22;46574;52.818;6.516;2023-04-03T02:59:18;0.90;99.90
60723;DHT22;46574;52.818;6.516;2023-04-03T03:01:44;0.90;99.90
60723;DHT22;46574;52.818;6.516;2023-04-03T03:04:10;0.90;99.90
60723;DHT22;46574;52.818;6.516;2023-04-03T03:06:36;0.90;99.90
60723;DHT22;46574;52.818;6.516;2023-04-03T03:09:02;0.90;99.90
60723;DHT22;46574;52.818;6.516;2023-04-03T03:11:29;0.90;99.90
60723;DHT22;46574;52.818;6.516;2023-04-03T03:13:55;0.90;99.90
60723;DHT22;46574;52.818;6.516;2023-04-03T03:16:21;0.90;99.90
60723;DHT22;46574;52.818;6.516;2023-04-03T03:18:47;0.90;99.90
60723;DHT22;46574;52.818;6.516;2023-04-03T03:21:13;0.80;99.90
60723;DHT22;46574;52.818;6.516;2023-04-03T03:23:38;0.80;99.90
60723;DHT22;46574;52.818;6.516;2023-04-03T03:26:07;0.80;99.90
60723;DHT22;46574;52.818;6.516;2023-04-03T03:28:34;0.80;99.90
60723;DHT22;46574;52.818;6.516;2023-04-03T03:31:00;0.70;99.90
60723;DHT22;46574;52.818;6.516;2023-04-03T03:33:26;0.70;99.90
60723;DHT22;46574;52.818;6.516;2023-04-03T03:35:52;0.70;99.90
60723;DHT22;46574;52.818;6.516;2023-04-03T03:38:18;0.70;99.90
60723;DHT22;46574;52.818;6.516;2023-04-03T03:40:44;0.70;99.90
60723;DHT22;46574;52.818;6.516;2023-04-03T03:43:11;0.60;99.90
60723;DHT22;46574;52.818;6.516;2023-04-03T03:45:37;0.60;99.90
60723;DHT22;46574;52.818;6.516;2023-04-03T03:48:03;0.60;99.90
60723;DHT22;46574;52.818;6.516;2023-04-03T03:50:29;0.60;99.90
60723;DHT22;46574;52.818;6.516;2023-04-03T03:52:55;0.60;99.90
60723;DHT22;46574;52.818;6.516;2023-04-03T03:55:21;0.60;99.90
60723;DHT22;46574;52.818;6.516;2023-04-03T03:57:47;0.50;99.90
60723;DHT22;46574;52.818;6.516;2023-04-03T04:00:13;0.50;99.90
60723;DHT22;46574;52.818;6.516;2023-04-03T04:02:38;0.50;99.90
60723;DHT22;46574;52.818;6.516;2023-04-03T04:05:04;0.50;99.90
60723;DHT22;46574;52.818;6.516;2023-04-03T04:07:30;0.50;99.90
60723;DHT22;46574;52.818;6.516;2023-04-03T04:09:56;0.40;99.90
60723;DHT22;46574;52.818;6.516;2023-04-03T04:12:21;0.40;99.90
60723;DHT22;46574;52.818;6.516;2023-04-03T04:14:47;0.40;99.90
60723;DHT22;46574;52.818;6.516;2023-04-03T04:17:13;0.40;99.90
60723;DHT22;46574;52.818;6.516;2023-04-03T04:19:39;0.40;99.90
60723;DHT22;46574;52.818;6.516;2023-04-03T04:22:05;0.40;99.90
60723;DHT22;46574;52.818;6.516;2023-04-03T04:24:30;0.30;99.90
60723;DHT22;46574;52.818;6.516;2023-04-03T04:26:56;0.30;99.90
60723;DHT22;46574;52.818;6.516;2023-04-03T04:29:22;0.30;99.90
60723;DHT22;46574;52.818;6.516;2023-04-03T04:31:47;0.30;99.90
60723;DHT22;46574;52.818;6.516;2023-04-03T04:34:14;0.30;99.90
60723;DHT22;46574;52.818;6.516;2023-04-03T04:36:40;0.20;99.90
60723;DHT22;46574;52.818;6.516;2023-04-03T04:39:05;0.20;99.90
60723;DHT22;46574;52.818;6.516;2023-04-03T04:41:31;0.20;99.90
60723;DHT22;46574;52.818;6.516;2023-04-03T04:43:57;0.20;99.90
60723;DHT22;46574;52.818;6.516;2023-04-03T04:46:23;0.20;99.90
60723;DHT22;46574;52.818;6.516;2023-04-03T04:48:49;0.10;99.90
60723;DHT22;46574;52.818;6.516;2023-04-03T04:51:15;0.10;99.90
60723;DHT22;46574;52.818;6.516;2023-04-03T04:53:41;0.10;99.90
60723;DHT22;46574;52.818;6.516;2023-04-03T04:56:08;0.10;99.90
60723;DHT22;46574;52.818;6.516;2023-04-03T04:58:34;0.10;99.90
60723;DHT22;46574;52.818;6.516;2023-04-03T05:01:01;0.00;99.90
60723;DHT22;46574;52.818;6.516;2023-04-03T05:03:27;0.00;99.90
60723;DHT22;46574;52.818;6.516;2023-04-03T05:05:52;-0.10;99.90
60723;DHT22;46574;52.818;6.516;2023-04-03T05:08:18;0.00;99.90
60723;DHT22;46574;52.818;6.516;2023-04-03T05:10:45;-0.10;99.90
60723;DHT22;46574;52.818;6.516;2023-04-03T05:13:11;-0.10;99.90
60723;DHT22;46574;52.818;6.516;2023-04-03T05:15:40;-0.10;99.90
60723;DHT22;46574;52.818;6.516;2023-04-03T05:18:06;-0.10;99.90
60723;DHT22;46574;52.818;6.516;2023-04-03T05:20:32;-0.10;99.90
60723;DHT22;46574;52.818;6.516;2023-04-03T05:22:58;-0.10;99.90
60723;DHT22;46574;52.818;6.516;2023-04-03T05:25:24;-0.10;99.90
60723;DHT22;46574;52.818;6.516;2023-04-03T05:27:50;-0.10;99.90
60723;DHT22;46574;52.818;6.516;2023-04-03T05:30:17;-0.10;99.90
60723;DHT22;46574;52.818;6.516;2023-04-03T05:32:43;0.00;99.90
60723;DHT22;46574;52.818;6.516;2023-04-03T05:35:09;0.00;99.90
60723;DHT22;46574;52.818;6.516;2023-04-03T05:37:35;0.00;99.90
60723;DHT22;46574;52.818;6.516;2023-04-03T05:40:02;0.00;99.90
60723;DHT22;46574;52.818;6.516;2023-04-03T05:42:27;0.00;99.90
60723;DHT22;46574;52.818;6.516;2023-04-03T05:44:53;0.00;99.90
60723;DHT22;46574;52.818;6.516;2023-04-03T05:47:19;0.10;99.90
60723;DHT22;46574;52.818;6.516;2023-04-03T05:49:45;0.10;99.90
60723;DHT22;46574;52.818;6.516;2023-04-03T05:52:35;0.20;99.90
60723;DHT22;46574;52.818;6.516;2023-04-03T05:55:02;0.20;99.90
60723;DHT22;46574;52.818;6.516;2023-04-03T05:57:28;0.20;99.90
60723;DHT22;46574;52.818;6.516;2023-04-03T05:59:54;0.30;99.90
60723;DHT22;46574;52.818;6.516;2023-04-03T06:02:21;0.30;99.90
60723;DHT22;46574;52.818;6.516;2023-04-03T06:04:47;0.40;99.90
60723;DHT22;46574;52.818;6.516;2023-04-03T06:07:21;0.40;99.90
60723;DHT22;46574;52.818;6.516;2023-04-03T06:09:49;0.50;99.90
60723;DHT22;46574;52.818;6.516;2023-04-03T06:12:15;0.50;99.90
60723;DHT22;46574;52.818;6.516;2023-04-03T06:14:40;0.60;99.90
60723;DHT22;46574;52.818;6.516;2023-04-03T06:17:06;0.60;99.90
60723;DHT22;46574;52.818;6.516;2023-04-03T06:19:34;0.70;99.90
60723;DHT22;46574;52.818;6.516;2023-04-03T06:21:59;0.80;99.90
60723;DHT22;46574;52.818;6.516;2023-04-03T06:24:26;0.80;99.90
60723;DHT22;46574;52.818;6.516;2023-04-03T06:26:52;0.90;99.90
60723;DHT22;46574;52.818;6.516;2023-04-03T06:29:18;1.00;99.90
60723;DHT22;46574;52.818;6.516;2023-04-03T06:31:45;1.10;99.90
60723;DHT22;46574;52.818;6.516;2023-04-03T06:34:11;1.20;99.90
60723;DHT22;46574;52.818;6.516;2023-04-03T06:36:37;1.20;99.90
60723;DHT22;46574;52.818;6.516;2023-04-03T06:39:04;1.30;99.90
60723;DHT22;46574;52.818;6.516;2023-04-03T06:41:30;1.40;99.90
60723;DHT22;46574;52.818;6.516;2023-04-03T06:43:56;1.50;99.90
60723;DHT22;46574;52.818;6.516;2023-04-03T06:46:23;1.60;99.90
60723;DHT22;46574;52.818;6.516;2023-04-03T06:48:50;1.70;99.90
60723;DHT22;46574;52.818;6.516;2023-04-03T06:51:28;1.70;99.90
60723;DHT22;46574;52.818;6.516;2023-04-03T06:53:56;1.80;99.90
60723;DHT22;46574;52.818;6.516;2023-04-03T06:56:22;1.90;99.90
60723;DHT22;46574;52.818;6.516;2023-04-03T06:58:48;1.90;99.90
60723;DHT22;46574;52.818;6.516;2023-04-03T07:01:16;2.00;99.90
60723;DHT22;46574;52.818;6.516;2023-04-03T07:03:42;2.10;99.90
60723;DHT22;46574;52.818;6.516;2023-04-03T07:06:11;2.20;99.90
60723;DHT22;46574;52.818;6.516;2023-04-03T07:08:37;2.20;99.90
60723;DHT22;46574;52.818;6.516;2023-04-03T07:11:03;2.30;99.90
60723;DHT22;46574;52.818;6.516;2023-04-03T07:13:29;2.40;99.90
60723;DHT22;46574;52.818;6.516;2023-04-03T07:15:54;2.40;99.90
60723;DHT22;46574;52.818;6.516;2023-04-03T07:18:20;2.50;99.90
60723;DHT22;46574;52.818;6.516;2023-04-03T07:20:47;2.60;99.90
60723;DHT22;46574;52.818;6.516;2023-04-03T07:23:12;2.70;99.90
60723;DHT22;46574;52.818;6.516;2023-04-03T07:25:46;2.70;99.90
60723;DHT22;46574;52.818;6.516;2023-04-03T07:28:13;2.90;99.90
60723;DHT22;46574;52.818;6.516;2023-04-03T07:30:47;2.90;99.90
60723;DHT22;46574;52.818;6.516;2023-04-03T07:33:15;3.10;99.90
60723;DHT22;46574;52.818;6.516;2023-04-03T07:35:41;3.10;99.90
60723;DHT22;46574;52.818;6.516;2023-04-03T07:38:08;3.20;99.90
60723;DHT22;46574;52.818;6.516;2023-04-03T07:40:34;3.30;99.90
60723;DHT22;46574;52.818;6.516;2023-04-03T07:43:00;3.40;99.90
60723;DHT22;46574;52.818;6.516;2023-04-03T07:45:26;3.50;99.90
60723;DHT22;46574;52.818;6.516;2023-04-03T07:47:53;3.60;99.90
60723;DHT22;46574;52.818;6.516;2023-04-03T07:50:18;3.70;99.90
60723;DHT22;46574;52.818;6.516;2023-04-03T07:52:45;3.80;99.90
60723;DHT22;46574;52.818;6.516;2023-04-03T07:55:11;3.90;99.90
60723;DHT22;46574;52.818;6.516;2023-04-03T07:57:36;3.90;99.90
60723;DHT22;46574;52.818;6.516;2023-04-03T08:00:05;4.00;99.90
60723;DHT22;46574;52.818;6.516;2023-04-03T08:02:31;4.10;99.90
60723;DHT22;46574;52.818;6.516;2023-04-03T08:04:58;4.20;99.90
60723;DHT22;46574;52.818;6.516;2023-04-03T08:07:24;4.30;99.90
60723;DHT22;46574;52.818;6.516;2023-04-03T08:09:50;4.40;99.90
60723;DHT22;46574;52.818;6.516;2023-04-03T08:12:17;4.50;99.90
60723;DHT22;46574;52.818;6.516;2023-04-03T08:14:42;4.60;99.90
60723;DHT22;46574;52.818;6.516;2023-04-03T08:17:08;4.70;99.90
60723;DHT22;46574;52.818;6.516;2023-04-03T08:19:37;4.70;99.90
60723;DHT22;46574;52.818;6.516;2023-04-03T08:22:03;4.80;99.90
60723;DHT22;46574;52.818;6.516;2023-04-03T08:24:30;4.80;99.90
60723;DHT22;46574;52.818;6.516;2023-04-03T08:26:56;4.90;99.90
60723;DHT22;46574;52.818;6.516;2023-04-03T08:29:22;5.00;99.90
60723;DHT22;46574;52.818;6.516;2023-04-03T08:31:48;5.10;99.90
60723;DHT22;46574;52.818;6.516;2023-04-03T08:34:15;5.20;99.90
60723;DHT22;46574;52.818;6.516;2023-04-03T08:36:41;5.30;99.90
60723;DHT22;46574;52.818;6.516;2023-04-03T08:39:07;5.40;99.90
60723;DHT22;46574;52.818;6.516;2023-04-03T08:41:38;5.40;99.90
60723;DHT22;46574;52.818;6.516;2023-04-03T08:47:20;5.60;99.90
60723;DHT22;46574;52.818;6.516;2023-04-03T08:50:24;5.70;99.90
60723;DHT22;46574;52.818;6.516;2023-04-03T08:52:55;5.90;99.90
60723;DHT22;46574;52.818;6.516;2023-04-03T08:55:43;6.00;99.90
60723;DHT22;46574;52.818;6.516;2023-04-03T08:58:16;6.10;99.90
60723;DHT22;46574;52.818;6.516;2023-04-03T09:03:21;6.30;99.90
60723;DHT22;46574;52.818;6.516;2023-04-03T09:06:06;6.40;99.90
60723;DHT22;46574;52.818;6.516;2023-04-03T09:22:13;7.20;99.90
60723;DHT22;46574;52.818;6.516;2023-04-03T09:24:43;7.40;99.90
60723;DHT22;46574;52.818;6.516;2023-04-03T09:27:11;7.50;99.90
60723;DHT22;46574;52.818;6.516;2023-04-03T09:29:41;7.70;99.90
60723;DHT22;46574;52.818;6.516;2023-04-03T09:32:29;7.90;99.90
60723;DHT22;46574;52.818;6.516;2023-04-03T09:34:59;8.10;99.90
60723;DHT22;46574;52.818;6.516;2023-04-03T09:37:39;8.30;99.90
60723;DHT22;46574;52.818;6.516;2023-04-03T09:40:06;8.40;99.90
60723;DHT22;46574;52.818;6.516;2023-04-03T09:42:57;8.50;99.90
60723;DHT22;46574;52.818;6.516;2023-04-03T09:55:56;9.20;99.90
60723;DHT22;46574;52.818;6.516;2023-04-03T09:58:35;9.40;99.90
60723;DHT22;46574;52.818;6.516;2023-04-03T10:01:03;9.40;99.90
60723;DHT22;46574;52.818;6.516;2023-04-03T10:03:34;9.50;99.90
60723;DHT22;46574;52.818;6.516;2023-04-03T10:06:02;9.70;99.90
60723;DHT22;46574;52.818;6.516;2023-04-03T10:08:32;9.80;98.90
60723;DHT22;46574;52.818;6.516;2023-04-03T10:11:15;9.80;96.30
60723;DHT22;46574;52.818;6.516;2023-04-03T10:14:02;9.80;95.50
60723;DHT22;46574;52.818;6.516;2023-04-03T10:28:02;10.30;93.90
60723;DHT22;46574;52.818;6.516;2023-04-03T10:31:30;10.30;93.40
60723;DHT22;46574;52.818;6.516;2023-04-03T10:34:05;10.30;89.70
60723;DHT22;46574;52.818;6.516;2023-04-03T10:36:46;10.40;92.00
60723;DHT22;46574;52.818;6.516;2023-04-03T10:39:42;10.50;91.10
60723;DHT22;46574;52.818;6.516;2023-04-03T10:42:14;10.50;88.70
60723;DHT22;46574;52.818;6.516;2023-04-03T10:47:43;10.70;88.40
60723;DHT22;46574;52.818;6.516;2023-04-03T10:50:27;10.70;87.00
60723;DHT22;46574;52.818;6.516;2023-04-03T10:55:43;10.90;85.40
60723;DHT22;46574;52.818;6.516;2023-04-03T10:58:28;10.90;86.90
60723;DHT22;46574;52.818;6.516;2023-04-03T11:00:59;11.00;79.70
60723;DHT22;46574;52.818;6.516;2023-04-03T11:03:36;11.00;85.30
60723;DHT22;46574;52.818;6.516;2023-04-03T11:06:08;11.00;83.90
60723;DHT22;46574;52.818;6.516;2023-04-03T11:08:42;11.00;83.20
60723;DHT22;46574;52.818;6.516;2023-04-03T11:11:15;10.90;77.10
60723;DHT22;46574;52.818;6.516;2023-04-03T11:13:46;10.80;80.10
60723;DHT22;46574;52.818;6.516;2023-04-03T11:16:20;10.90;81.50
60723;DHT22;46574;52.818;6.516;2023-04-03T11:21:44;11.00;79.20
60723;DHT22;46574;52.818;6.516;2023-04-03T11:24:20;10.90;72.00
60723;DHT22;46574;52.818;6.516;2023-04-03T11:26:49;10.90;70.20
60723;DHT22;46574;52.818;6.516;2023-04-03T11:29:21;10.80;71.80
60723;DHT22;46574;52.818;6.516;2023-04-03T11:32:20;10.80;74.00
60723;DHT22;46574;52.818;6.516;2023-04-03T11:34:55;10.90;73.40
60723;DHT22;46574;52.818;6.516;2023-04-03T11:37:39;10.90;72.80
60723;DHT22;46574;52.818;6.516;2023-04-03T11:42:52;10.90;76.60
60723;DHT22;46574;52.818;6.516;2023-04-03T11:47:56;11.00;75.10
60723;DHT22;46574;52.818;6.516;2023-04-03T12:19:00;11.30;76.80
60723;DHT22;46574;52.818;6.516;2023-04-03T12:29:33;11.30;75.50
60723;DHT22;46574;52.818;6.516;2023-04-03T12:32:10;11.30;79.50
60723;DHT22;46574;52.818;6.516;2023-04-03T12:40:53;11.50;76.10
60723;DHT22;46574;52.818;6.516;2023-04-03T12:51:16;11.50;71.40
60723;DHT22;46574;52.818;6.516;2023-04-03T12:53:44;11.50;74.60
60723;DHT22;46574;52.818;6.516;2023-04-03T12:56:25;11.60;75.50
60723;DHT22;46574;52.818;6.516;2023-04-03T12:58:53;11.70;76.20
60723;DHT22;46574;52.818;6.516;2023-04-03T13:01:25;11.70;76.40
60723;DHT22;46574;52.818;6.516;2023-04-03T13:03:57;11.80;77.30
60723;DHT22;46574;52.818;6.516;2023-04-03T13:06:42;11.90;73.90
60723;DHT22;46574;52.818;6.516;2023-04-03T13:12:01;11.90;71.60
60723;DHT22;46574;52.818;6.516;2023-04-03T13:14:28;11.90;67.60
60723;DHT22;46574;52.818;6.516;2023-04-03T13:17:03;11.80;72.20
60723;DHT22;46574;52.818;6.516;2023-04-03T13:19:30;11.80;72.00
60723;DHT22;46574;52.818;6.516;2023-04-03T13:22:49;11.80;71.70
60723;DHT22;46574;52.818;6.516;2023-04-03T13:24:58;11.90;71.90
60723;DHT22;46574;52.818;6.516;2023-04-03T13:27:24;12.00;69.10
60723;DHT22;46574;52.818;6.516;2023-04-03T13:29:52;11.90;67.30
60723;DHT22;46574;52.818;6.516;2023-04-03T13:32:22;12.00;70.10
60723;DHT22;46574;52.818;6.516;2023-04-03T13:34:48;12.10;70.10
60723;DHT22;46574;52.818;6.516;2023-04-03T13:37:30;12.20;71.90
60723;DHT22;46574;52.818;6.516;2023-04-03T13:42:29;12.40;75.00
60723;DHT22;46574;52.818;6.516;2023-04-03T13:45:24;12.40;72.80
60723;DHT22;46574;52.818;6.516;2023-04-03T13:48:16;12.40;71.30
60723;DHT22;46574;52.818;6.516;2023-04-03T13:51:23;12.50;73.00
60723;DHT22;46574;52.818;6.516;2023-04-03T13:53:56;12.50;69.30
60723;DHT22;46574;52.818;6.516;2023-04-03T13:56:36;12.40;70.20
60723;DHT22;46574;52.818;6.516;2023-04-03T13:59:22;12.40;69.80
60723;DHT22;46574;52.818;6.516;2023-04-03T14:01:57;12.40;67.80
60723;DHT22;46574;52.818;6.516;2023-04-03T14:04:44;12.30;68.30
60723;DHT22;46574;52.818;6.516;2023-04-03T14:07:11;12.20;68.60
60723;DHT22;46574;52.818;6.516;2023-04-03T14:09:36;12.10;66.40
60723;DHT22;46574;52.818;6.516;2023-04-03T14:12:07;12.10;70.30
60723;DHT22;46574;52.818;6.516;2023-04-03T14:14:35;12.20;64.10
60723;DHT22;46574;52.818;6.516;2023-04-03T14:17:05;12.30;68.90
60723;DHT22;46574;52.818;6.516;2023-04-03T14:19:36;12.30;70.20
60723;DHT22;46574;52.818;6.516;2023-04-03T14:22:13;12.30;66.80
60723;DHT22;46574;52.818;6.516;2023-04-03T14:24:39;12.50;65.50
60723;DHT22;46574;52.818;6.516;2023-04-03T14:27:15;12.70;65.50
60723;DHT22;46574;52.818;6.516;2023-04-03T14:29:41;12.70;67.40
60723;DHT22;46574;52.818;6.516;2023-04-03T14:32:07;12.60;65.80
60723;DHT22;46574;52.818;6.516;2023-04-03T14:34:33;12.50;65.50
60723;DHT22;46574;52.818;6.516;2023-04-03T14:36:58;12.50;65.70
60723;DHT22;46574;52.818;6.516;2023-04-03T14:39:24;12.40;65.70
60723;DHT22;46574;52.818;6.516;2023-04-03T14:41:50;12.30;66.80
60723;DHT22;46574;52.818;6.516;2023-04-03T14:44:15;12.30;66.50
60723;DHT22;46574;52.818;6.516;2023-04-03T14:46:43;12.40;65.60
60723;DHT22;46574;52.818;6.516;2023-04-03T14:49:20;12.60;66.00
60723;DHT22;46574;52.818;6.516;2023-04-03T14:51:47;13.30;64.60
60723;DHT22;46574;52.818;6.516;2023-04-03T14:54:18;13.70;60.70
60723;DHT22;46574;52.818;6.516;2023-04-03T14:56:47;14.30;62.00
60723;DHT22;46574;52.818;6.516;2023-04-03T14:59:13;14.00;63.40
60723;DHT22;46574;52.818;6.516;2023-04-03T15:01:40;13.30;64.30
60723;DHT22;46574;52.818;6.516;2023-04-03T15:04:12;13.30;64.80
60723;DHT22;46574;52.818;6.516;2023-04-03T15:06:38;13.70;63.70
60723;DHT22;46574;52.818;6.516;2023-04-03T15:09:04;13.90;63.30
60723;DHT22;46574;52.818;6.516;2023-04-03T15:11:29;13.80;63.10
60723;DHT22;46574;52.818;6.516;2023-04-03T15:13:55;14.00;61.30
60723;DHT22;46574;52.818;6.516;2023-04-03T15:16:21;14.30;61.20
60723;DHT22;46574;52.818;6.516;2023-04-03T15:18:47;14.70;60.40
60723;DHT22;46574;52.818;6.516;2023-04-03T15:21:13;15.00;59.10
60723;DHT22;46574;52.818;6.516;2023-04-03T15:23:39;15.50;58.40
60723;DHT22;46574;52.818;6.516;2023-04-03T15:26:05;15.60;57.90
60723;DHT22;46574;52.818;6.516;2023-04-03T15:28:34;16.20;59.50
60723;DHT22;46574;52.818;6.516;2023-04-03T15:31:01;17.50;57.10
60723;DHT22;46574;52.818;6.516;2023-04-03T15:33:28;17.50;53.60
60723;DHT22;46574;52.818;6.516;2023-04-03T15:35:54;17.20;55.40
60723;DHT22;46574;52.818;6.516;2023-04-03T15:38:20;16.60;55.30
60723;DHT22;46574;52.818;6.516;2023-04-03T15:40:46;16.00;55.70
60723;DHT22;46574;52.818;6.516;2023-04-03T15:43:15;15.10;55.80
60723;DHT22;46574;52.818;6.516;2023-04-03T15:45:41;14.60;57.60
60723;DHT22;46574;52.818;6.516;2023-04-03T15:48:08;14.60;58.90
60723;DHT22;46574;52.818;6.516;2023-04-03T15:50:34;14.70;58.60
60723;DHT22;46574;52.818;6.516;2023-04-03T15:53:00;14.10;57.80
60723;DHT22;46574;52.818;6.516;2023-04-03T15:55:29;13.70;58.30
60723;DHT22;46574;52.818;6.516;2023-04-03T15:57:55;13.50;59.00
60723;DHT22;46574;52.818;6.516;2023-04-03T16:00:22;13.30;57.90
60723;DHT22;46574;52.818;6.516;2023-04-03T16:02:51;13.20;58.20
60723;DHT22;46574;52.818;6.516;2023-04-03T16:05:18;13.00;55.60
60723;DHT22;46574;52.818;6.516;2023-04-03T16:07:45;12.70;57.20
60723;DHT22;46574;52.818;6.516;2023-04-03T16:10:13;13.10;56.80
60723;DHT22;46574;52.818;6.516;2023-04-03T16:12:38;13.70;57.60
60723;DHT22;46574;52.818;6.516;2023-04-03T16:15:05;12.70;55.50
60723;DHT22;46574;52.818;6.516;2023-04-03T16:17:32;12.20;57.10
60723;DHT22;46574;52.818;6.516;2023-04-03T16:19:59;12.50;56.40
60723;DHT22;46574;52.818;6.516;2023-04-03T16:22:26;12.60;57.40
60723;DHT22;46574;52.818;6.516;2023-04-03T16:24:52;12.70;59.40
60723;DHT22;46574;52.818;6.516;2023-04-03T16:27:19;12.60;61.00
60723;DHT22;46574;52.818;6.516;2023-04-03T16:29:44;12.50;62.30
60723;DHT22;46574;52.818;6.516;2023-04-03T16:32:11;12.50;62.00
60723;DHT22;46574;52.818;6.516;2023-04-03T16:34:37;12.60;63.00
60723;DHT22;46574;52.818;6.516;2023-04-03T16:37:03;12.80;62.10
60723;DHT22;46574;52.818;6.516;2023-04-03T16:39:29;13.20;60.70
60723;DHT22;46574;52.818;6.516;2023-04-03T16:41:54;13.20;60.40
60723;DHT22;46574;52.818;6.516;2023-04-03T16:44:20;12.50;59.40
60723;DHT22;46574;52.818;6.516;2023-04-03T16:46:46;12.40;59.70
60723;DHT22;46574;52.818;6.516;2023-04-03T16:49:11;12.40;60.10
60723;DHT22;46574;52.818;6.516;2023-04-03T16:51:37;12.40;62.20
60723;DHT22;46574;52.818;6.516;2023-04-03T16:54:03;12.50;63.00
60723;DHT22;46574;52.818;6.516;2023-04-03T16:56:28;12.50;63.40
60723;DHT22;46574;52.818;6.516;2023-04-03T16:58:54;12.40;62.20
60723;DHT22;46574;52.818;6.516;2023-04-03T17:01:21;12.30;62.50
60723;DHT22;46574;52.818;6.516;2023-04-03T17:03:47;12.10;62.50
60723;DHT22;46574;52.818;6.516;2023-04-03T17:06:17;11.80;62.00
60723;DHT22;46574;52.818;6.516;2023-04-03T17:08:45;11.50;63.20
60723;DHT22;46574;52.818;6.516;2023-04-03T17:11:11;11.10;63.70
60723;DHT22;46574;52.818;6.516;2023-04-03T17:13:37;10.70;64.90
60723;DHT22;46574;52.818;6.516;2023-04-03T17:16:04;10.40;66.10
60723;DHT22;46574;52.818;6.516;2023-04-03T17:18:32;10.10;67.00
60723;DHT22;46574;52.818;6.516;2023-04-03T17:20:57;9.90;67.70
60723;DHT22;46574;52.818;6.516;2023-04-03T17:23:25;9.60;68.30
60723;DHT22;46574;52.818;6.516;2023-04-03T17:25:51;9.50;69.20
60723;DHT22;46574;52.818;6.516;2023-04-03T17:28:19;9.40;70.50
60723;DHT22;46574;52.818;6.516;2023-04-03T17:30:47;9.20;71.10
60723;DHT22;46574;52.818;6.516;2023-04-03T17:33:16;9.00;71.20
60723;DHT22;46574;52.818;6.516;2023-04-03T17:35:41;8.90;72.90
60723;DHT22;46574;52.818;6.516;2023-04-03T17:38:07;8.70;73.00
60723;DHT22;46574;52.818;6.516;2023-04-03T17:40:33;8.60;74.40
60723;DHT22;46574;52.818;6.516;2023-04-03T17:42:58;8.40;75.40
60723;DHT22;46574;52.818;6.516;2023-04-03T17:45:24;8.30;77.80
60723;DHT22;46574;52.818;6.516;2023-04-03T17:47:51;8.20;78.30
60723;DHT22;46574;52.818;6.516;2023-04-03T17:50:18;8.10;78.90